sensor_id;sensor_type;location;lat;lon;timestamp;temperature;humidity
19330;DHT22;9799;48.214;16.388;2024-01-11T00:01:11;-1.40;99.90
19330;DHT22;9799;48.214;16.388;2024-01-11T00:04:32;-1.70;99.90
19330;DHT22;9799;48.214;16.388;2024-01-11T00:07:53;-1.60;99.90
19330;DHT22;9799;48.214;16.388;2024-01-11T00:11:16;-1.40;99.90
19330;DHT22;9799;48.214;16.388;2024-01-11T00:14:37;-1.30;99.90
19330;DHT22;9799;48.214;16.388;2024-01-11T00:17:58;-1.20;99.90
19330;DHT22;9799;48.214;16.388;2024-01-11T00:21:20;-1.20;99.90
19330;DHT22;9799;48.214;16.388;2024-01-11T00:24:41;-1.60;99.90
19330;DHT22;9799;48.214;16.388;2024-01-11T00:28:04;-1.70;99.90
19330;DHT22;9799;48.214;16.388;2024-01-11T00:31:25;-1.70;99.90
19330;DHT22;9799;48.214;16.388;2024-01-11T00:34:47;-1.70;99.90
19330;DHT22;9799;48.214;16.388;2024-01-11T00:38:08;-1.70;99.90
19330;DHT22;9799;48.214;16.388;2024-01-11T00:41:29;-1.70;99.90
19330;DHT22;9799;48.214;16.388;2024-01-11T00:44:52;-1.40;99.90
19330;DHT22;9799;48.214;16.388;2024-01-11T00:48:13;-1.50;99.90
19330;DHT22;9799;48.214;16.388;2024-01-11T00:51:34;-1.70;99.90
19330;DHT22;9799;48.214;16.388;2024-01-11T00:54:55;-1.80;99.90
19330;DHT22;9799;48.214;16.388;2024-01-11T00:58:16;-1.80;99.90
19330;DHT22;9799;48.214;16.388;2024-01-11T01:01:39;-1.60;99.90
19330;DHT22;9799;48.214;16.388;2024-01-11T01:05:00;-1.70;99.90
19330;DHT22;9799;48.214;16.388;2024-01-11T01:08:21;-1.80;99.90
19330;DHT22;9799;48.214;16.388;2024-01-11T01:11:42;-2.00;99.90
19330;DHT22;9799;48.214;16.388;2024-01-11T01:15:04;-1.90;99.90
19330;DHT22;9799;48.214;16.388;2024-01-11T01:18:27;-1.80;99.90
19330;DHT22;9799;48.214;16.388;2024-01-11T01:21:48;-1.90;99.90
19330;DHT22;9799;48.214;16.388;2024-01-11T01:25:09;-1.90;99.90
19330;DHT22;9799;48.214;16.388;2024-01-11T01:28:30;-1.90;99.90
19330;DHT22;9799;48.214;16.388;2024-01-11T01:31:52;-2.00;99.90
19330;DHT22;9799;48.214;16.388;2024-01-11T01:35:15;-1.90;99.90
19330;DHT22;9799;48.214;16.388;2024-01-11T01:38:36;-1.60;99.90
19330;DHT22;9799;48.214;16.388;2024-01-11T01:41:57;-1.40;99.90
19330;DHT22;9799;48.214;16.388;2024-01-11T01:45:18;-1.40;99.90
19330;DHT22;9799;48.214;16.388;2024-01-11T01:48:39;-1.40;99.90
19330;DHT22;9799;48.214;16.388;2024-01-11T01:52:02;-1.40;99.90
19330;DHT22;9799;48.214;16.388;2024-01-11T01:55:25;-1.70;99.90
19330;DHT22;9799;48.214;16.388;2024-01-11T01:58:48;-1.70;99.90
19330;DHT22;9799;48.214;16.388;2024-01-11T02:02:11;-1.50;99.90
19330;DHT22;9799;48.214;16.388;2024-01-11T02:05:32;-1.40;99.90
19330;DHT22;9799;48.214;16.388;2024-01-11T02:08:56;-1.30;99.90
19330;DHT22;9799;48.214;16.388;2024-01-11T02:12:17;-1.30;99.90
19330;DHT22;9799;48.214;16.388;2024-01-11T02:15:38;-1.40;99.90
19330;DHT22;9799;48.214;16.388;2024-01-11T02:19:00;-1.50;99.90
19330;DHT22;9799;48.214;16.388;2024-01-11T02:22:24;-1.40;99.90
19330;DHT22;9799;48.214;16.388;2024-01-11T02:25:48;-1.50;99.90
19330;DHT22;9799;48.214;16.388;2024-01-11T02:29:09;-1.50;99.90
19330;DHT22;9799;48.214;16.388;2024-01-11T02:32:30;-1.50;99.90
19330;DHT22;9799;48.214;16.388;2024-01-11T02:35:52;-1.40;99.90
19330;DHT22;9799;48.214;16.388;2024-01-11T02:39:14;-1.50;99.90
19330;DHT22;9799;48.214;16.388;2024-01-11T02:42:38;-1.60;99.90
19330;DHT22;9799;48.214;16.388;2024-01-11T02:45:59;-1.70;99.90
19330;DHT22;9799;48.214;16.388;2024-01-11T02:49:20;-1.70;99.90
19330;DHT22;9799;48.214;16.388;2024-01-11T02:52:41;-1.60;99.90
19330;DHT22;9799;48.214;16.388;2024-01-11T02:56:03;-1.50;99.90
19330;DHT22;9799;48.214;16.388;2024-01-11T02:59:26;-1.50;99.90
19330;DHT22;9799;48.214;16.388;2024-01-11T03:02:47;-1.60;99.90
19330;DHT22;9799;48.214;16.388;2024-01-11T03:06:08;-1.60;99.90
19330;DHT22;9799;48.214;16.388;2024-01-11T03:09:29;-1.50;99.90
19330;DHT22;9799;48.214;16.388;2024-01-11T03:12:50;-1.50;99.90
19330;DHT22;9799;48.214;16.388;2024-01-11T03:16:13;-1.60;99.90
19330;DHT22;9799;48.214;16.388;2024-01-11T03:19:38;-1.60;99.90
19330;DHT22;9799;48.214;16.388;2024-01-11T03:22:59;-1.70;99.90
19330;DHT22;9799;48.214;16.388;2024-01-11T03:26:21;-1.70;99.90
19330;DHT22;9799;48.214;16.388;2024-01-11T03:29:42;-1.60;99.90
19330;DHT22;9799;48.214;16.388;2024-01-11T03:33:04;-1.80;99.90
19330;DHT22;9799;48.214;16.388;2024-01-11T03:36:26;-1.70;99.90
19330;DHT22;9799;48.214;16.388;2024-01-11T03:39:47;-1.70;99.90
19330;DHT22;9799;48.214;16.388;2024-01-11T03:43:08;-1.70;99.90
19330;DHT22;9799;48.214;16.388;2024-01-11T03:46:29;-1.70;99.90
19330;DHT22;9799;48.214;16.388;2024-01-11T03:49:52;-2.00;99.90
19330;DHT22;9799;48.214;16.388;2024-01-11T03:53:12;-2.00;99.90
19330;DHT22;9799;48.214;16.388;2024-01-11T03:56:37;-1.90;99.90
19330;DHT22;9799;48.214;16.388;2024-01-11T03:59:59;-1.80;99.90
19330;DHT22;9799;48.214;16.388;2024-01-11T04:03:20;-1.90;99.90
19330;DHT22;9799;48.214;16.388;2024-01-11T04:06:42;-1.80;99.90
19330;DHT22;9799;48.214;16.388;2024-01-11T04:10:04;-1.70;99.90
19330;DHT22;9799;48.214;16.388;2024-01-11T04:13:25;-1.70;99.90
19330;DHT22;9799;48.214;16.388;2024-01-11T04:16:47;-2.00;99.90
19330;DHT22;9799;48.214;16.388;2024-01-11T04:20:08;-1.90;99.90
19330;DHT22;9799;48.214;16.388;2024-01-11T04:23:31;-1.90;99.90
19330;DHT22;9799;48.214;16.388;2024-01-11T04:26:52;-2.00;99.90
19330;DHT22;9799;48.214;16.388;2024-01-11T04:30:13;-2.00;99.90
19330;DHT22;9799;48.214;16.388;2024-01-11T04:33:35;-2.00;99.90
19330;DHT22;9799;48.214;16.388;2024-01-11T04:36:56;-2.10;99.90
19330;DHT22;9799;48.214;16.388;2024-01-11T04:40:18;-2.10;99.90
19330;DHT22;9799;48.214;16.388;2024-01-11T04:43:40;-2.20;99.90
19330;DHT22;9799;48.214;16.388;2024-01-11T04:47:01;-2.20;99.90
19330;DHT22;9799;48.214;16.388;2024-01-11T04:50:23;-2.30;99.90
19330;DHT22;9799;48.214;16.388;2024-01-11T04:53:44;-2.20;99.90
19330;DHT22;9799;48.214;16.388;2024-01-11T04:57:07;-2.30;99.90
19330;DHT22;9799;48.214;16.388;2024-01-11T05:00:29;-2.30;99.90
19330;DHT22;9799;48.214;16.388;2024-01-11T05:03:50;-2.30;99.90
19330;DHT22;9799;48.214;16.388;2024-01-11T05:07:11;-2.40;99.90
19330;DHT22;9799;48.214;16.388;2024-01-11T05:10:32;-2.40;99.90
19330;DHT22;9799;48.214;16.388;2024-01-11T05:13:55;-2.40;99.90
19330;DHT22;9799;48.214;16.388;2024-01-11T05:17:16;-2.50;99.90
19330;DHT22;9799;48.214;16.388;2024-01-11T05:20:37;-2.60;99.90
19330;DHT22;9799;48.214;16.388;2024-01-11T05:23:58;-2.70;99.90
19330;DHT22;9799;48.214;16.388;2024-01-11T05:27:19;-2.70;99.90
19330;DHT22;9799;48.214;16.388;2024-01-11T05:30:42;-2.70;99.90
19330;DHT22;9799;48.214;16.388;2024-01-11T05:34:03;-2.60;99.90
19330;DHT22;9799;48.214;16.388;2024-01-11T05:37:24;-2.70;99.90
19330;DHT22;9799;48.214;16.388;2024-01-11T05:40:45;-2.70;99.90
19330;DHT22;9799;48.214;16.388;2024-01-11T05:44:06;-2.70;99.90
19330;DHT22;9799;48.214;16.388;2024-01-11T05:47:29;-2.80;99.90
19330;DHT22;9799;48.214;16.388;2024-01-11T05:50:50;-2.80;99.90
19330;DHT22;9799;48.214;16.388;2024-01-11T05:54:11;-2.70;99.90
19330;DHT22;9799;48.214;16.388;2024-01-11T05:57:32;-2.60;99.90
19330;DHT22;9799;48.214;16.388;2024-01-11T06:00:53;-2.80;99.90
19330;DHT22;9799;48.214;16.388;2024-01-11T06:04:16;-2.80;99.90
19330;DHT22;9799;48.214;16.388;2024-01-11T06:07:38;-2.80;99.90
19330;DHT22;9799;48.214;16.388;2024-01-11T06:10:59;-2.70;99.90
19330;DHT22;9799;48.214;16.388;2024-01-11T06:14:20;-2.60;99.90
19330;DHT22;9799;48.214;16.388;2024-01-11T06:17:41;-2.60;99.90
19330;DHT22;9799;48.214;16.388;2024-01-11T06:21:04;-2.50;99.90
19330;DHT22;9799;48.214;16.388;2024-01-11T06:24:25;-2.60;99.90
19330;DHT22;9799;48.214;16.388;2024-01-11T06:27:46;-2.60;99.90
19330;DHT22;9799;48.214;16.388;2024-01-11T06:31:09;-2.50;99.90
19330;DHT22;9799;48.214;16.388;2024-01-11T06:34:31;-2.50;99.90
19330;DHT22;9799;48.214;16.388;2024-01-11T06:37:54;-2.40;99.90
19330;DHT22;9799;48.214;16.388;2024-01-11T06:41:15;-2.50;99.90
19330;DHT22;9799;48.214;16.388;2024-01-11T06:44:36;-2.60;99.90
19330;DHT22;9799;48.214;16.388;2024-01-11T06:47:57;-2.70;99.90
19330;DHT22;9799;48.214;16.388;2024-01-11T06:51:21;-2.50;99.90
19330;DHT22;9799;48.214;16.388;2024-01-11T06:54:43;-2.40;99.90
19330;DHT22;9799;48.214;16.388;2024-01-11T06:58:05;-2.30;99.90
19330;DHT22;9799;48.214;16.388;2024-01-11T07:01:26;-2.30;99.90
19330;DHT22;9799;48.214;16.388;2024-01-11T07:04:47;-2.30;99.90
19330;DHT22;9799;48.214;16.388;2024-01-11T07:08:08;-2.30;99.90
19330;DHT22;9799;48.214;16.388;2024-01-11T07:11:30;-2.20;99.90
19330;DHT22;9799;48.214;16.388;2024-01-11T07:14:52;-2.40;99.90
19330;DHT22;9799;48.214;16.388;2024-01-11T07:18:13;-2.40;99.90
19330;DHT22;9799;48.214;16.388;2024-01-11T07:21:34;-2.50;99.90
19330;DHT22;9799;48.214;16.388;2024-01-11T07:24:55;-2.50;99.90
19330;DHT22;9799;48.214;16.388;2024-01-11T07:28:18;-2.60;99.90
19330;DHT22;9799;48.214;16.388;2024-01-11T07:31:45;-2.60;99.90
19330;DHT22;9799;48.214;16.388;2024-01-11T07:35:06;-2.60;99.90
19330;DHT22;9799;48.214;16.388;2024-01-11T07:38:29;-2.50;99.90
19330;DHT22;9799;48.214;16.388;2024-01-11T07:41:50;-2.50;99.90
19330;DHT22;9799;48.214;16.388;2024-01-11T07:45:13;-2.60;99.90
19330;DHT22;9799;48.214;16.388;2024-01-11T07:48:34;-2.60;99.90
19330;DHT22;9799;48.214;16.388;2024-01-11T07:51:56;-2.50;99.90
19330;DHT22;9799;48.214;16.388;2024-01-11T07:55:17;-2.50;99.90
19330;DHT22;9799;48.214;16.388;2024-01-11T07:58:43;-2.40;99.90
19330;DHT22;9799;48.214;16.388;2024-01-11T08:02:06;-2.30;99.90
19330;DHT22;9799;48.214;16.388;2024-01-11T08:05:27;-2.20;99.90
19330;DHT22;9799;48.214;16.388;2024-01-11T08:08:49;-2.20;99.90
19330;DHT22;9799;48.214;16.388;2024-01-11T08:12:12;-2.30;99.90
19330;DHT22;9799;48.214;16.388;2024-01-11T08:15:33;-2.20;99.90
19330;DHT22;9799;48.214;16.388;2024-01-11T08:18:56;-2.10;99.90
19330;DHT22;9799;48.214;16.388;2024-01-11T08:22:17;-2.20;99.90
19330;DHT22;9799;48.214;16.388;2024-01-11T08:25:39;-2.10;99.90
19330;DHT22;9799;48.214;16.388;2024-01-11T08:29:00;-2.10;99.90
19330;DHT22;9799;48.214;16.388;2024-01-11T08:32:22;-1.90;99.90
19330;DHT22;9799;48.214;16.388;2024-01-11T08:35:44;-1.90;99.90
19330;DHT22;9799;48.214;16.388;2024-01-11T08:39:06;-2.00;99.90
19330;DHT22;9799;48.214;16.388;2024-01-11T08:42:28;-2.00;99.90
19330;DHT22;9799;48.214;16.388;2024-01-11T08:45:49;-2.00;99.90
19330;DHT22;9799;48.214;16.388;2024-01-11T08:49:10;-1.80;99.90
19330;DHT22;9799;48.214;16.388;2024-01-11T08:52:32;-1.70;99.90
19330;DHT22;9799;48.214;16.388;2024-01-11T08:55:54;-1.70;99.90
19330;DHT22;9799;48.214;16.388;2024-01-11T08:59:15;-1.70;99.90
19330;DHT22;9799;48.214;16.388;2024-01-11T09:02:36;-1.70;99.90
19330;DHT22;9799;48.214;16.388;2024-01-11T09:05:57;-1.80;99.90
19330;DHT22;9799;48.214;16.388;2024-01-11T09:09:20;-1.70;99.90
19330;DHT22;9799;48.214;16.388;2024-01-11T09:12:41;-1.60;99.90
19330;DHT22;9799;48.214;16.388;2024-01-11T09:16:02;-1.40;99.90
19330;DHT22;9799;48.214;16.388;2024-01-11T09:19:24;-1.20;99.90
19330;DHT22;9799;48.214;16.388;2024-01-11T09:22:45;-1.20;99.90
19330;DHT22;9799;48.214;16.388;2024-01-11T09:26:08;-1.20;99.90
19330;DHT22;9799;48.214;16.388;2024-01-11T09:29:30;-1.30;99.90
19330;DHT22;9799;48.214;16.388;2024-01-11T09:32:51;-1.10;99.90
19330;DHT22;9799;48.214;16.388;2024-01-11T09:36:13;-1.10;99.90
19330;DHT22;9799;48.214;16.388;2024-01-11T09:39:34;-1.00;99.90
19330;DHT22;9799;48.214;16.388;2024-01-11T09:42:57;-1.10;99.90
19330;DHT22;9799;48.214;16.388;2024-01-11T09:46:18;-1.20;99.90
19330;DHT22;9799;48.214;16.388;2024-01-11T09:49:41;-1.30;99.90
19330;DHT22;9799;48.214;16.388;2024-01-11T09:53:04;-1.40;99.90
19330;DHT22;9799;48.214;16.388;2024-01-11T09:56:28;-1.10;99.90
19330;DHT22;9799;48.214;16.388;2024-01-11T09:59:51;-0.90;99.90
19330;DHT22;9799;48.214;16.388;2024-01-11T10:03:15;-0.80;99.90
19330;DHT22;9799;48.214;16.388;2024-01-11T10:06:38;-1.00;99.90
19330;DHT22;9799;48.214;16.388;2024-01-11T10:10:00;-0.80;99.90
19330;DHT22;9799;48.214;16.388;2024-01-11T10:13:27;-0.60;99.90
19330;DHT22;9799;48.214;16.388;2024-01-11T10:16:50;-0.80;99.90
19330;DHT22;9799;48.214;16.388;2024-01-11T10:20:11;-0.70;99.90
19330;DHT22;9799;48.214;16.388;2024-01-11T10:23:34;-0.50;99.90
19330;DHT22;9799;48.214;16.388;2024-01-11T10:26:56;-0.50;99.90
19330;DHT22;9799;48.214;16.388;2024-01-11T10:30:18;-0.50;99.90
19330;DHT22;9799;48.214;16.388;2024-01-11T10:33:44;-0.30;99.90
19330;DHT22;9799;48.214;16.388;2024-01-11T10:37:05;-0.30;99.90
19330;DHT22;9799;48.214;16.388;2024-01-11T10:40:27;-0.30;99.90
19330;DHT22;9799;48.214;16.388;2024-01-11T10:43:48;-0.30;99.90
19330;DHT22;9799;48.214;16.388;2024-01-11T10:47:10;-0.20;99.90
19330;DHT22;9799;48.214;16.388;2024-01-11T10:50:35;0.00;99.90
19330;DHT22;9799;48.214;16.388;2024-01-11T10:53:57;-0.10;99.90
19330;DHT22;9799;48.214;16.388;2024-01-11T10:57:20;0.10;99.90
19330;DHT22;9799;48.214;16.388;2024-01-11T11:00:41;0.10;99.90
19330;DHT22;9799;48.214;16.388;2024-01-11T11:04:03;0.10;99.90
19330;DHT22;9799;48.214;16.388;2024-01-11T11:07:26;0.00;99.90
19330;DHT22;9799;48.214;16.388;2024-01-11T11:10:49;0.00;99.90
19330;DHT22;9799;48.214;16.388;2024-01-11T11:14:14;-0.10;99.90
19330;DHT22;9799;48.214;16.388;2024-01-11T11:17:37;0.00;99.90
19330;DHT22;9799;48.214;16.388;2024-01-11T11:20:59;0.30;99.90
19330;DHT22;9799;48.214;16.388;2024-01-11T11:24:21;0.20;99.90
19330;DHT22;9799;48.214;16.388;2024-01-11T11:27:43;0.30;99.90
19330;DHT22;9799;48.214;16.388;2024-01-11T11:31:04;0.10;99.90
19330;DHT22;9799;48.214;16.388;2024-01-11T11:34:40;0.20;99.90
19330;DHT22;9799;48.214;16.388;2024-01-11T11:38:02;0.00;99.90
19330;DHT22;9799;48.214;16.388;2024-01-11T11:41:25;0.10;99.90
19330;DHT22;9799;48.214;16.388;2024-01-11T11:44:50;0.20;99.90
19330;DHT22;9799;48.214;16.388;2024-01-11T11:48:48;0.30;99.90
19330;DHT22;9799;48.214;16.388;2024-01-11T11:52:14;0.50;99.90
19330;DHT22;9799;48.214;16.388;2024-01-11T11:55:36;0.40;99.90
19330;DHT22;9799;48.214;16.388;2024-01-11T11:59:00;0.30;99.90
19330;DHT22;9799;48.214;16.388;2024-01-11T12:02:23;0.20;99.90
19330;DHT22;9799;48.214;16.388;2024-01-11T12:05:45;0.30;99.90
19330;DHT22;9799;48.214;16.388;2024-01-11T12:09:07;0.50;99.90
19330;DHT22;9799;48.214;16.388;2024-01-11T12:12:28;0.60;99.90
19330;DHT22;9799;48.214;16.388;2024-01-11T12:15:51;0.80;99.90
19330;DHT22;9799;48.214;16.388;2024-01-11T12:19:12;0.70;99.90
19330;DHT22;9799;48.214;16.388;2024-01-11T12:22:34;0.70;99.90
19330;DHT22;9799;48.214;16.388;2024-01-11T12:25:56;0.80;99.90
19330;DHT22;9799;48.214;16.388;2024-01-11T12:29:18;0.80;99.90
19330;DHT22;9799;48.214;16.388;2024-01-11T12:32:41;0.90;99.90
19330;DHT22;9799;48.214;16.388;2024-01-11T12:36:02;0.80;99.90
19330;DHT22;9799;48.214;16.388;2024-01-11T12:39:25;0.80;99.90
19330;DHT22;9799;48.214;16.388;2024-01-11T12:42:46;0.90;99.90
19330;DHT22;9799;48.214;16.388;2024-01-11T12:46:09;0.80;99.90
19330;DHT22;9799;48.214;16.388;2024-01-11T12:49:32;0.90;99.90
19330;DHT22;9799;48.214;16.388;2024-01-11T12:53:07;1.10;99.90
19330;DHT22;9799;48.214;16.388;2024-01-11T12:56:29;1.10;99.90
19330;DHT22;9799;48.214;16.388;2024-01-11T12:59:50;1.10;99.90
19330;DHT22;9799;48.214;16.388;2024-01-11T13:03:12;1.10;99.90
19330;DHT22;9799;48.214;16.388;2024-01-11T13:06:35;1.20;99.90
19330;DHT22;9799;48.214;16.388;2024-01-11T13:09:56;1.30;99.90
19330;DHT22;9799;48.214;16.388;2024-01-11T13:13:17;1.30;99.90
19330;DHT22;9799;48.214;16.388;2024-01-11T13:16:40;1.20;99.90
19330;DHT22;9799;48.214;16.388;2024-01-11T13:20:01;1.10;99.90
19330;DHT22;9799;48.214;16.388;2024-01-11T13:23:24;1.10;99.90
19330;DHT22;9799;48.214;16.388;2024-01-11T13:26:45;1.10;99.90
19330;DHT22;9799;48.214;16.388;2024-01-11T13:30:07;1.10;99.90
19330;DHT22;9799;48.214;16.388;2024-01-11T13:33:28;1.20;99.90
19330;DHT22;9799;48.214;16.388;2024-01-11T13:36:50;1.00;99.90
19330;DHT22;9799;48.214;16.388;2024-01-11T13:40:12;1.00;99.90
19330;DHT22;9799;48.214;16.388;2024-01-11T13:43:34;0.90;99.90
19330;DHT22;9799;48.214;16.388;2024-01-11T13:46:55;1.00;99.90
19330;DHT22;9799;48.214;16.388;2024-01-11T13:50:17;0.90;99.90
19330;DHT22;9799;48.214;16.388;2024-01-11T13:53:38;1.00;99.90
19330;DHT22;9799;48.214;16.388;2024-01-11T13:57:01;1.10;99.90
19330;DHT22;9799;48.214;16.388;2024-01-11T14:00:22;1.20;99.90
19330;DHT22;9799;48.214;16.388;2024-01-11T14:03:44;1.20;99.90
19330;DHT22;9799;48.214;16.388;2024-01-11T14:07:05;1.20;99.90
19330;DHT22;9799;48.214;16.388;2024-01-11T14:10:27;1.30;99.90
19330;DHT22;9799;48.214;16.388;2024-01-11T14:13:50;1.30;99.90
19330;DHT22;9799;48.214;16.388;2024-01-11T14:17:11;1.40;99.90
19330;DHT22;9799;48.214;16.388;2024-01-11T14:20:32;1.50;99.90
19330;DHT22;9799;48.214;16.388;2024-01-11T14:23:54;1.40;99.90
19330;DHT22;9799;48.214;16.388;2024-01-11T14:27:15;1.40;99.90
19330;DHT22;9799;48.214;16.388;2024-01-11T14:30:37;1.40;99.90
19330;DHT22;9799;48.214;16.388;2024-01-11T14:33:59;1.30;99.90
19330;DHT22;9799;48.214;16.388;2024-01-11T14:37:20;1.40;99.90
19330;DHT22;9799;48.214;16.388;2024-01-11T14:40:41;1.40;99.90
19330;DHT22;9799;48.214;16.388;2024-01-11T14:44:03;1.40;99.90
19330;DHT22;9799;48.214;16.388;2024-01-11T14:47:25;1.40;99.90
19330;DHT22;9799;48.214;16.388;2024-01-11T14:50:47;1.40;99.90
19330;DHT22;9799;48.214;16.388;2024-01-11T14:54:08;1.50;99.90
19330;DHT22;9799;48.214;16.388;2024-01-11T14:57:29;1.60;99.90
19330;DHT22;9799;48.214;16.388;2024-01-11T15:00:50;1.70;99.90
19330;DHT22;9799;48.214;16.388;2024-01-11T15:04:13;1.80;99.90
19330;DHT22;9799;48.214;16.388;2024-01-11T15:07:34;1.70;99.90
19330;DHT22;9799;48.214;16.388;2024-01-11T15:10:55;1.60;99.90
19330;DHT22;9799;48.214;16.388;2024-01-11T15:14:17;1.60;99.90
19330;DHT22;9799;48.214;16.388;2024-01-11T15:17:38;1.50;99.90
19330;DHT22;9799;48.214;16.388;2024-01-11T15:21:01;1.50;99.90
19330;DHT22;9799;48.214;16.388;2024-01-11T15:24:22;1.50;99.90
19330;DHT22;9799;48.214;16.388;2024-01-11T15:27:43;1.50;99.90
19330;DHT22;9799;48.214;16.388;2024-01-11T15:31:05;1.50;99.90
19330;DHT22;9799;48.214;16.388;2024-01-11T15:34:26;1.50;99.90
19330;DHT22;9799;48.214;16.388;2024-01-11T15:37:48;1.60;99.90
19330;DHT22;9799;48.214;16.388;2024-01-11T15:41:09;1.70;99.90
19330;DHT22;9799;48.214;16.388;2024-01-11T15:44:31;1.70;99.90
19330;DHT22;9799;48.214;16.388;2024-01-11T15:47:53;1.60;99.90
19330;DHT22;9799;48.214;16.388;2024-01-11T15:51:15;1.70;99.90
19330;DHT22;9799;48.214;16.388;2024-01-11T15:54:37;1.60;99.90
19330;DHT22;9799;48.214;16.388;2024-01-11T15:57:58;1.50;99.90
19330;DHT22;9799;48.214;16.388;2024-01-11T16:01:20;1.60;99.90
19330;DHT22;9799;48.214;16.388;2024-01-11T16:04:41;1.60;99.90
19330;DHT22;9799;48.214;16.388;2024-01-11T16:08:05;1.50;99.90
19330;DHT22;9799;48.214;16.388;2024-01-11T16:11:27;1.50;99.90
19330;DHT22;9799;48.214;16.388;2024-01-11T16:14:49;1.40;99.90
19330;DHT22;9799;48.214;16.388;2024-01-11T16:18:11;1.30;99.90
19330;DHT22;9799;48.214;16.388;2024-01-11T16:21:32;1.30;99.90
19330;DHT22;9799;48.214;16.388;2024-01-11T16:24:54;1.30;99.90
19330;DHT22;9799;48.214;16.388;2024-01-11T16:28:16;1.30;99.90
19330;DHT22;9799;48.214;16.388;2024-01-11T16:31:38;1.60;99.90
19330;DHT22;9799;48.214;16.388;2024-01-11T16:34:59;1.60;99.90
19330;DHT22;9799;48.214;16.388;2024-01-11T16:38:20;1.60;99.90
19330;DHT22;9799;48.214;16.388;2024-01-11T16:41:41;1.50;99.90
19330;DHT22;9799;48.214;16.388;2024-01-11T16:45:06;1.30;99.90
19330;DHT22;9799;48.214;16.388;2024-01-11T16:48:28;1.20;99.90
19330;DHT22;9799;48.214;16.388;2024-01-11T16:51:49;1.20;99.90
19330;DHT22;9799;48.214;16.388;2024-01-11T16:55:10;1.10;99.90
19330;DHT22;9799;48.214;16.388;2024-01-11T16:58:31;1.10;99.90
19330;DHT22;9799;48.214;16.388;2024-01-11T17:01:54;1.20;99.90
19330;DHT22;9799;48.214;16.388;2024-01-11T17:05:15;1.20;99.90
19330;DHT22;9799;48.214;16.388;2024-01-11T17:08:37;1.30;99.90
19330;DHT22;9799;48.214;16.388;2024-01-11T17:11:59;1.40;99.90
19330;DHT22;9799;48.214;16.388;2024-01-11T17:15:20;1.30;99.90
19330;DHT22;9799;48.214;16.388;2024-01-11T17:18:43;1.50;99.90
19330;DHT22;9799;48.214;16.388;2024-01-11T17:22:05;1.60;99.90
19330;DHT22;9799;48.214;16.388;2024-01-11T17:25:26;1.50;99.90
19330;DHT22;9799;48.214;16.388;2024-01-11T17:28:47;1.50;99.90
19330;DHT22;9799;48.214;16.388;2024-01-11T17:32:09;1.30;99.90
19330;DHT22;9799;48.214;16.388;2024-01-11T17:35:31;1.40;99.90
19330;DHT22;9799;48.214;16.388;2024-01-11T17:38:52;1.40;99.90
19330;DHT22;9799;48.214;16.388;2024-01-11T17:42:14;1.40;99.90
19330;DHT22;9799;48.214;16.388;2024-01-11T17:45:35;1.40;99.90
19330;DHT22;9799;48.214;16.388;2024-01-11T17:48:57;1.40;99.90
19330;DHT22;9799;48.214;16.388;2024-01-11T17:52:19;1.40;99.90
19330;DHT22;9799;48.214;16.388;2024-01-11T17:55:41;1.50;99.90
19330;DHT22;9799;48.214;16.388;2024-01-11T17:59:02;1.60;99.90
19330;DHT22;9799;48.214;16.388;2024-01-11T18:02:25;1.60;99.90
19330;DHT22;9799;48.214;16.388;2024-01-11T18:05:46;1.60;99.90
19330;DHT22;9799;48.214;16.388;2024-01-11T18:09:08;1.70;99.90
19330;DHT22;9799;48.214;16.388;2024-01-11T18:12:30;1.80;99.90
19330;DHT22;9799;48.214;16.388;2024-01-11T18:15:51;1.90;99.90
19330;DHT22;9799;48.214;16.388;2024-01-11T18:19:12;1.90;99.90
19330;DHT22;9799;48.214;16.388;2024-01-11T18:22:34;1.90;99.90
19330;DHT22;9799;48.214;16.388;2024-01-11T18:25:57;1.90;99.90
19330;DHT22;9799;48.214;16.388;2024-01-11T18:29:18;1.90;99.90
19330;DHT22;9799;48.214;16.388;2024-01-11T18:32:41;1.90;99.90
19330;DHT22;9799;48.214;16.388;2024-01-11T18:36:03;2.00;99.90
19330;DHT22;9799;48.214;16.388;2024-01-11T18:39:24;2.00;99.90
19330;DHT22;9799;48.214;16.388;2024-01-11T18:42:47;1.90;99.90
19330;DHT22;9799;48.214;16.388;2024-01-11T18:46:08;2.00;99.90
19330;DHT22;9799;48.214;16.388;2024-01-11T18:49:29;2.00;99.90
19330;DHT22;9799;48.214;16.388;2024-01-11T18:52:50;2.00;99.90
19330;DHT22;9799;48.214;16.388;2024-01-11T18:56:13;1.90;99.90
19330;DHT22;9799;48.214;16.388;2024-01-11T18:59:36;2.00;99.90
19330;DHT22;9799;48.214;16.388;2024-01-11T19:02:58;2.00;99.90
19330;DHT22;9799;48.214;16.388;2024-01-11T19:06:20;2.00;99.90
19330;DHT22;9799;48.214;16.388;2024-01-11T19:09:41;2.00;99.50
19330;DHT22;9799;48.214;16.388;2024-01-11T19:13:03;2.00;99.70
19330;DHT22;9799;48.214;16.388;2024-01-11T19:16:25;2.00;99.90
19330;DHT22;9799;48.214;16.388;2024-01-11T19:19:47;2.00;99.90
19330;DHT22;9799;48.214;16.388;2024-01-11T19:23:08;2.00;99.90
19330;DHT22;9799;48.214;16.388;2024-01-11T19:26:30;2.00;99.60
19330;DHT22;9799;48.214;16.388;2024-01-11T19:29:51;2.10;99.40
19330;DHT22;9799;48.214;16.388;2024-01-11T19:33:13;2.10;99.60
19330;DHT22;9799;48.214;16.388;2024-01-11T19:36:37;2.10;99.90
19330;DHT22;9799;48.214;16.388;2024-01-11T19:39:59;2.10;99.90
19330;DHT22;9799;48.214;16.388;2024-01-11T19:43:20;2.10;99.90
19330;DHT22;9799;48.214;16.388;2024-01-11T19:46:41;2.10;99.90
19330;DHT22;9799;48.214;16.388;2024-01-11T19:50:06;2.00;99.90
19330;DHT22;9799;48.214;16.388;2024-01-11T19:53:28;2.10;99.90
19330;DHT22;9799;48.214;16.388;2024-01-11T19:56:49;2.00;99.90
19330;DHT22;9799;48.214;16.388;2024-01-11T20:00:11;2.00;99.90
19330;DHT22;9799;48.214;16.388;2024-01-11T20:03:34;2.00;99.90
19330;DHT22;9799;48.214;16.388;2024-01-11T20:06:57;2.00;99.90
19330;DHT22;9799;48.214;16.388;2024-01-11T20:10:19;1.90;99.90
19330;DHT22;9799;48.214;16.388;2024-01-11T20:13:40;2.00;99.90
19330;DHT22;9799;48.214;16.388;2024-01-11T20:17:02;1.90;99.90
19330;DHT22;9799;48.214;16.388;2024-01-11T20:20:23;2.00;99.90
19330;DHT22;9799;48.214;16.388;2024-01-11T20:23:46;2.00;99.90
19330;DHT22;9799;48.214;16.388;2024-01-11T20:27:07;2.00;99.90
19330;DHT22;9799;48.214;16.388;2024-01-11T20:30:28;1.90;99.90
19330;DHT22;9799;48.214;16.388;2024-01-11T20:33:49;1.90;99.90
19330;DHT22;9799;48.214;16.388;2024-01-11T20:37:11;1.90;99.90
19330;DHT22;9799;48.214;16.388;2024-01-11T20:40:33;1.90;99.90
19330;DHT22;9799;48.214;16.388;2024-01-11T20:43:55;1.90;99.90
19330;DHT22;9799;48.214;16.388;2024-01-11T20:47:16;1.90;99.90
19330;DHT22;9799;48.214;16.388;2024-01-11T20:50:42;1.90;99.90
19330;DHT22;9799;48.214;16.388;2024-01-11T20:54:04;1.90;99.90
19330;DHT22;9799;48.214;16.388;2024-01-11T20:57:26;1.90;99.90
19330;DHT22;9799;48.214;16.388;2024-01-11T21:00:48;1.90;99.90
19330;DHT22;9799;48.214;16.388;2024-01-11T21:04:09;1.90;99.90
19330;DHT22;9799;48.214;16.388;2024-01-11T21:07:30;1.80;99.90
19330;DHT22;9799;48.214;16.388;2024-01-11T21:10:51;1.80;99.90
19330;DHT22;9799;48.214;16.388;2024-01-11T21:14:14;1.90;99.90
19330;DHT22;9799;48.214;16.388;2024-01-11T21:17:35;2.00;99.90
19330;DHT22;9799;48.214;16.388;2024-01-11T21:20:57;2.00;99.90
19330;DHT22;9799;48.214;16.388;2024-01-11T21:24:18;1.90;99.90